createdAt,value
2023-02-13T00:01:28.206Z,49.00
2023-02-13T00:03:56.541Z,43.13
2023-02-13T00:06:24.774Z,45.17
2023-02-13T00:08:52.981Z,53.85
2023-02-13T00:11:21.582Z,50.58
2023-02-13T00:13:49.761Z,47.13
2023-02-13T00:16:19.260Z,52.95
2023-02-13T00:18:47.492Z,52.17
2023-02-13T00:21:15.809Z,48.65
2023-02-13T00:23:43.958Z,40.50
2023-02-13T00:26:15.101Z,50.45
2023-02-13T00:28:46.994Z,41.67
2023-02-13T00:31:19.334Z,53.03
2023-02-13T00:33:47.957Z,45.83
2023-02-13T00:36:18.031Z,39.17
2023-02-13T00:38:47.942Z,42.22
2023-02-13T00:41:17.635Z,44.67
2023-02-13T00:43:46.688Z,43.42
2023-02-13T00:46:15.161Z,38.42
2023-02-13T00:48:45.799Z,42.53
2023-02-13T00:51:14.450Z,41.33
2023-02-13T00:53:42.634Z,42.72
2023-02-13T00:56:11.316Z,45.58
2023-02-13T00:58:40.002Z,43.22
2023-02-13T01:01:08.204Z,43.47
2023-02-13T01:03:36.459Z,45.92
2023-02-13T01:06:07.358Z,46.40
2023-02-13T01:08:36.540Z,41.72
2023-02-13T01:11:04.776Z,45.30
2023-02-13T01:13:33.050Z,47.60
2023-02-13T01:16:01.349Z,43.22
2023-02-13T01:18:29.961Z,51.38
2023-02-13T01:21:01.401Z,43.83
2023-02-13T01:23:33.594Z,45.88
2023-02-13T01:26:02.146Z,45.50
2023-02-13T01:28:30.371Z,48.60
2023-02-13T01:30:59.661Z,50.17
2023-02-13T01:33:30.235Z,44.88
2023-02-13T01:36:00.160Z,41.45
2023-02-13T01:38:29.157Z,42.72
2023-02-13T01:40:58.874Z,42.05
2023-02-13T01:43:48.817Z,39.25
2023-02-13T01:46:23.646Z,40.97
2023-02-13T01:48:55.106Z,44.63
2023-02-13T01:51:28.758Z,45.10
2023-02-13T01:54:03.494Z,44.10
2023-02-13T01:56:39.243Z,41.53
2023-02-13T01:59:20.272Z,37.83
2023-02-13T02:01:49.890Z,38.00
2023-02-13T02:04:22.434Z,41.05
2023-02-13T02:06:57.038Z,38.90
2023-02-13T02:09:33.743Z,44.85
2023-02-13T02:12:12.637Z,38.80
2023-02-13T02:14:42.340Z,45.10
2023-02-13T02:17:13.153Z,36.50
2023-02-13T02:19:50.586Z,37.22
2023-02-13T02:23:19.838Z,35.53
2023-02-13T02:26:28.433Z,40.33
2023-02-13T02:29:32.608Z,41.78
2023-02-13T02:32:25.172Z,35.17
2023-02-13T02:35:05.212Z,44.75
2023-02-13T02:38:03.042Z,39.90
2023-02-13T02:40:44.300Z,40.28
2023-02-13T02:43:30.030Z,42.42
2023-02-13T02:46:12.898Z,45.88
2023-02-13T02:49:07.419Z,43.35
2023-02-13T02:51:48.212Z,38.90
2023-02-13T02:54:43.386Z,42.92
2023-02-13T02:57:20.410Z,38.03
2023-02-13T03:00:14.643Z,34.92
2023-02-13T03:03:00.321Z,40.22
2023-02-13T03:05:51.019Z,35.97
2023-02-13T03:08:39.792Z,44.53
2023-02-13T03:11:25.956Z,36.30
2023-02-13T03:13:55.574Z,34.97
2023-02-13T03:16:43.895Z,39.90
2023-02-13T03:19:39.534Z,37.40
2023-02-13T03:22:23.768Z,38.75
2023-02-13T03:25:08.938Z,38.85
2023-02-13T03:28:06.745Z,34.25
2023-02-13T03:30:50.072Z,38.85
2023-02-13T03:33:37.829Z,36.13
2023-02-13T03:36:44.098Z,37.83
2023-02-13T03:39:22.501Z,42.50
2023-02-13T03:41:57.109Z,45.58
2023-02-13T03:44:31.686Z,41.50
2023-02-13T03:47:03.582Z,36.13
2023-02-13T03:50:09.576Z,41.30
2023-02-13T03:52:46.348Z,47.40
2023-02-13T03:55:36.729Z,36.28
2023-02-13T03:58:30.001Z,32.28
2023-02-13T04:01:04.941Z,33.63
2023-02-13T04:03:41.592Z,34.33
2023-02-13T04:06:14.206Z,43.33
2023-02-13T04:11:24.817Z,42.42
2023-02-13T04:13:57.904Z,42.10
2023-02-13T04:16:33.224Z,39.13
2023-02-13T04:19:02.947Z,41.60
2023-02-13T04:21:34.531Z,43.75
2023-02-13T04:24:02.698Z,39.58
2023-02-13T04:26:37.130Z,36.70
2023-02-13T04:29:05.464Z,44.15
2023-02-13T04:31:33.928Z,34.42
2023-02-13T04:34:02.214Z,38.33
2023-02-13T04:36:30.872Z,34.97
2023-02-13T04:38:59.266Z,36.90
2023-02-13T04:41:27.410Z,35.28
2023-02-13T04:43:57.187Z,38.00
2023-02-13T04:46:25.529Z,47.83
2023-02-13T04:48:53.803Z,33.85
2023-02-13T04:51:22.021Z,31.63
2023-02-13T04:53:50.134Z,35.92
2023-02-13T04:56:19.922Z,37.05
2023-02-13T04:58:48.279Z,35.83
2023-02-13T05:01:19.089Z,37.78
2023-02-13T05:03:47.354Z,34.60
2023-02-13T05:06:15.787Z,37.72
2023-02-13T05:08:43.930Z,36.35
2023-02-13T05:11:12.166Z,37.80
2023-02-13T05:13:40.382Z,34.00
2023-02-13T05:16:08.945Z,40.55
2023-02-13T05:18:38.614Z,39.55
2023-02-13T05:21:24.786Z,40.60
2023-02-13T05:23:52.963Z,41.83
2023-02-13T05:26:21.274Z,37.42
2023-02-13T05:29:07.136Z,41.70
2023-02-13T05:31:35.589Z,36.13
2023-02-13T05:34:05.269Z,35.33
2023-02-13T05:36:33.468Z,39.60
2023-02-13T05:39:02.089Z,35.67
2023-02-13T05:41:30.275Z,40.78
2023-02-13T05:43:58.425Z,46.55
2023-02-13T05:46:26.707Z,35.88
2023-02-13T05:48:54.942Z,45.00
2023-02-13T05:51:24.696Z,42.28
2023-02-13T05:53:53.342Z,37.72
2023-02-13T05:56:21.540Z,32.85
2023-02-13T05:58:53.647Z,33.28
2023-02-13T06:01:22.073Z,32.28
2023-02-13T06:03:50.942Z,34.22
2023-02-13T06:06:19.649Z,39.47
2023-02-13T06:08:49.181Z,39.13
2023-02-13T06:11:17.418Z,33.30
2023-02-13T06:13:45.572Z,39.45
2023-02-13T06:16:14.303Z,41.00
2023-02-13T06:18:42.666Z,36.15
2023-02-13T06:21:11.136Z,40.22
2023-02-13T06:23:39.310Z,38.13
2023-02-13T06:26:10.596Z,42.50
2023-02-13T06:28:38.891Z,38.25
2023-02-13T06:31:07.218Z,43.00
2023-02-13T06:33:35.533Z,36.30
2023-02-13T06:36:03.781Z,37.10
2023-02-13T06:38:32.088Z,33.90
2023-02-13T06:41:02.324Z,35.65
2023-02-13T06:43:32.449Z,35.13
2023-02-13T06:46:00.958Z,35.70
2023-02-13T06:48:29.192Z,30.88
2023-02-13T06:50:57.808Z,40.70
2023-02-13T06:53:26.201Z,37.80
2023-02-13T06:55:55.281Z,33.08
2023-02-13T06:58:25.643Z,37.20
2023-02-13T07:00:55.652Z,38.72
2023-02-13T07:03:24.050Z,33.75
2023-02-13T07:05:52.721Z,34.40
2023-02-13T07:08:21.051Z,37.17
2023-02-13T07:10:49.340Z,32.67
2023-02-13T07:13:17.574Z,38.05
2023-02-13T07:15:45.968Z,36.35
2023-02-13T07:18:15.513Z,42.78
2023-02-13T07:20:43.657Z,33.97
2023-02-13T07:23:11.921Z,37.33
2023-02-13T07:25:40.077Z,34.47
2023-02-13T07:28:08.820Z,32.97
2023-02-13T07:30:37.192Z,34.45
2023-02-13T07:33:06.690Z,30.63
2023-02-13T07:35:37.649Z,31.13
2023-02-13T07:38:06.397Z,38.05
2023-02-13T07:40:34.633Z,37.20
2023-02-13T07:43:03.070Z,36.47
2023-02-13T07:45:31.574Z,34.58
2023-02-13T07:48:00.159Z,28.90
2023-02-13T07:50:29.225Z,29.50
2023-02-13T07:53:01.138Z,33.72
2023-02-13T07:55:30.539Z,30.30
2023-02-13T07:58:00.918Z,34.88
2023-02-13T08:00:29.152Z,29.27
2023-02-13T08:03:00.161Z,26.55
2023-02-13T08:05:28.607Z,36.42
2023-02-13T08:07:58.159Z,34.67
2023-02-13T08:10:44.082Z,31.38
2023-02-13T08:13:15.376Z,33.13
2023-02-13T08:15:44.922Z,36.65
2023-02-13T08:18:13.172Z,31.23
2023-02-13T08:20:41.513Z,38.47
2023-02-13T08:23:12.944Z,35.50
2023-02-13T08:25:41.573Z,41.90
2023-02-13T08:28:10.048Z,38.28
2023-02-13T08:30:38.290Z,42.53
2023-02-13T08:33:06.570Z,48.65
2023-02-13T08:35:34.800Z,44.88
2023-02-13T08:38:04.255Z,52.90
2023-02-13T08:40:34.043Z,42.78
2023-02-13T08:43:03.107Z,42.33
2023-02-13T08:45:32.428Z,43.13
2023-02-13T08:48:01.123Z,39.22
2023-02-13T08:50:29.723Z,41.67
2023-02-13T08:52:59.874Z,41.78
2023-02-13T08:55:29.785Z,40.25
2023-02-13T08:58:02.534Z,43.72
2023-02-13T09:00:31.402Z,44.17
2023-02-13T09:03:03.283Z,50.42
2023-02-13T09:05:32.524Z,44.33
2023-02-13T09:08:02.736Z,38.97
2023-02-13T09:10:31.775Z,44.40
2023-02-13T09:13:02.186Z,37.08
2023-02-13T09:15:30.468Z,41.67
2023-02-13T09:17:59.081Z,28.27
2023-02-13T09:20:27.350Z,29.35
2023-02-13T09:22:57.433Z,28.95
2023-02-13T09:25:25.801Z,28.48
2023-02-13T09:27:53.988Z,29.65
2023-02-13T09:30:24.447Z,34.58
2023-02-13T09:32:53.690Z,39.72
2023-02-13T09:35:23.980Z,38.67
2023-02-13T09:37:52.223Z,47.97
2023-02-13T09:40:27.083Z,37.42
2023-02-13T09:43:15.426Z,31.95
2023-02-13T09:45:47.649Z,29.60
2023-02-13T09:48:28.501Z,29.10
2023-02-13T09:50:57.288Z,28.45
2023-02-13T09:53:28.590Z,26.05
2023-02-13T09:56:09.685Z,29.55
2023-02-13T09:58:45.525Z,32.17
2023-02-13T10:01:31.134Z,25.42
2023-02-13T10:04:33.731Z,28.58
2023-02-13T10:07:20.903Z,23.63
2023-02-13T10:10:01.596Z,23.92
2023-02-13T10:13:00.037Z,26.30
2023-02-13T10:15:38.436Z,30.08
2023-02-13T10:18:13.698Z,25.23
2023-02-13T10:20:48.158Z,27.73
2023-02-13T10:23:26.014Z,26.33
2023-02-13T10:25:59.395Z,23.98
2023-02-13T10:28:38.513Z,23.23
2023-02-13T10:31:11.522Z,22.48
2023-02-13T10:33:50.151Z,23.52
2023-02-13T10:36:22.172Z,23.17
2023-02-13T10:39:01.252Z,20.40
2023-02-13T10:41:47.335Z,21.38
2023-02-13T10:44:33.696Z,21.05
2023-02-13T10:47:15.021Z,21.70
2023-02-13T10:50:13.692Z,21.70
2023-02-13T10:52:58.128Z,17.70
2023-02-13T10:55:59.592Z,22.73
2023-02-13T10:58:44.634Z,19.27
2023-02-13T11:01:20.663Z,19.60
2023-02-13T11:04:09.016Z,17.85
2023-02-13T11:06:43.486Z,19.38
2023-02-13T11:09:13.534Z,20.85
2023-02-13T11:11:44.003Z,18.50
2023-02-13T11:14:16.349Z,19.90
2023-02-13T11:16:57.831Z,18.77
2023-02-13T11:19:32.502Z,20.33
2023-02-13T11:22:06.251Z,20.77
2023-02-13T11:24:35.439Z,17.75
2023-02-13T11:27:09.138Z,18.50
2023-02-13T11:29:51.532Z,16.38
2023-02-13T11:32:24.438Z,20.25
2023-02-13T11:34:54.604Z,18.63
2023-02-13T11:37:27.711Z,18.27
2023-02-13T11:39:59.150Z,19.10
2023-02-13T11:42:31.466Z,18.58
2023-02-13T11:45:07.824Z,21.27
2023-02-13T11:47:40.808Z,16.77
2023-02-13T11:50:23.932Z,19.10
2023-02-13T11:53:00.104Z,22.38
2023-02-13T11:55:34.451Z,18.13
2023-02-13T11:58:05.393Z,17.25
2023-02-13T12:00:39.873Z,19.45
2023-02-13T12:03:31.370Z,18.10
2023-02-13T12:06:06.822Z,17.80
2023-02-13T12:08:39.702Z,19.60
2023-02-13T12:11:22.002Z,14.95
2023-02-13T12:13:52.280Z,18.10
2023-02-13T12:16:33.934Z,17.77
2023-02-13T12:19:07.170Z,16.23
2023-02-13T12:21:55.020Z,14.90
2023-02-13T12:24:47.666Z,16.92
2023-02-13T12:27:24.496Z,15.88
2023-02-13T12:30:28.139Z,15.65
2023-02-13T12:33:03.956Z,17.38
2023-02-13T12:35:50.062Z,14.02
2023-02-13T12:38:38.907Z,15.93
2023-02-13T12:41:22.736Z,15.27
2023-02-13T12:44:30.176Z,16.15
2023-02-13T12:47:11.680Z,15.77
2023-02-13T12:50:29.334Z,13.52
2023-02-13T12:53:15.275Z,15.68
2023-02-13T12:56:10.289Z,13.80
2023-02-13T12:59:04.079Z,16.65
2023-02-13T13:02:36.224Z,16.00
2023-02-13T13:05:19.962Z,16.40
2023-02-13T13:08:22.487Z,14.18
2023-02-13T13:11:16.391Z,18.90
2023-02-13T13:14:01.028Z,15.23
2023-02-13T13:16:45.115Z,15.52
2023-02-13T13:19:28.382Z,15.82
2023-02-13T13:22:03.356Z,13.73
2023-02-13T13:24:47.524Z,14.25
2023-02-13T13:27:23.939Z,14.50
2023-02-13T13:29:59.646Z,20.55
2023-02-13T13:32:29.172Z,20.75
2023-02-13T13:34:59.011Z,13.93
2023-02-13T13:37:35.151Z,15.15
2023-02-13T13:40:23.627Z,16.92
2023-02-13T13:42:57.704Z,16.10
2023-02-13T13:45:41.770Z,17.67
2023-02-13T13:48:56.083Z,16.25
2023-02-13T13:51:24.876Z,17.55
2023-02-13T13:54:26.531Z,16.30
2023-02-13T13:57:15.010Z,16.48
2023-02-13T14:00:26.084Z,18.10
2023-02-13T14:03:36.624Z,17.20
2023-02-13T14:06:11.031Z,17.50
2023-02-13T14:09:07.173Z,19.27
2023-02-13T14:11:39.758Z,15.25
2023-02-13T14:17:56.445Z,16.67
2023-02-13T14:20:39.604Z,16.63
2023-02-13T14:23:17.244Z,19.30
2023-02-13T14:25:45.832Z,14.77
2023-02-13T14:28:25.517Z,15.32
2023-02-13T14:31:06.591Z,15.85
2023-02-13T14:33:35.327Z,15.10
2023-02-13T14:36:17.556Z,13.55
2023-02-13T14:38:45.901Z,15.82
2023-02-13T14:41:46.005Z,15.95
2023-02-13T14:44:21.071Z,12.55
2023-02-13T14:46:51.667Z,12.23
2023-02-13T14:49:25.711Z,12.15
2023-02-13T14:51:59.591Z,11.65
2023-02-13T14:54:33.389Z,12.75
2023-02-13T14:57:11.046Z,10.80
2023-02-13T14:59:45.122Z,12.70
2023-02-13T15:02:25.820Z,14.13
2023-02-13T15:05:00.169Z,12.27
2023-02-13T15:07:35.475Z,11.88
2023-02-13T15:10:19.067Z,13.15
2023-02-13T15:12:47.354Z,11.70
2023-02-13T15:15:27.463Z,14.10
2023-02-13T15:18:00.244Z,13.40
2023-02-13T15:20:33.895Z,13.05
2023-02-13T15:23:06.595Z,10.48
2023-02-13T15:25:37.982Z,12.88
2023-02-13T15:28:09.172Z,17.23
2023-02-13T15:30:39.296Z,13.07
2023-02-13T15:33:19.408Z,14.82
2023-02-13T15:35:47.800Z,14.48
2023-02-13T15:38:21.953Z,10.77
2023-02-13T15:40:53.271Z,12.65
2023-02-13T15:43:33.036Z,14.93
2023-02-13T15:46:07.490Z,17.13
2023-02-13T15:48:36.745Z,13.65
2023-02-13T15:51:05.343Z,13.77
2023-02-13T15:53:34.889Z,11.60
2023-02-13T15:56:05.949Z,13.75
2023-02-13T15:58:35.989Z,14.15
2023-02-13T16:01:08.721Z,13.70
2023-02-13T16:03:38.960Z,13.98
2023-02-13T16:06:13.300Z,14.45
2023-02-13T16:08:52.321Z,16.55
2023-02-13T16:11:33.355Z,17.52
2023-02-13T16:14:18.221Z,21.58
2023-02-13T16:16:52.362Z,25.83
2023-02-13T16:19:32.721Z,17.65
2023-02-13T16:22:07.740Z,25.08
2023-02-13T16:24:38.082Z,20.30
2023-02-13T16:27:15.273Z,21.55
2023-02-13T16:29:56.703Z,19.88
2023-02-13T16:32:30.761Z,18.45
2023-02-13T16:35:18.753Z,20.70
2023-02-13T16:37:57.253Z,25.85
2023-02-13T16:40:41.918Z,19.30
2023-02-13T16:43:44.130Z,21.42
2023-02-13T16:46:31.934Z,22.40
2023-02-13T16:49:17.906Z,24.85
2023-02-13T16:52:06.562Z,23.75
2023-02-13T16:54:48.591Z,20.60
2023-02-13T16:57:25.543Z,22.17
2023-02-13T16:59:59.100Z,22.70
2023-02-13T17:02:28.720Z,20.25
2023-02-13T17:05:12.814Z,23.05
2023-02-13T17:07:49.147Z,19.75
2023-02-13T17:10:27.099Z,21.58
2023-02-13T17:12:59.481Z,26.70
2023-02-13T17:15:32.036Z,19.33
2023-02-13T17:20:36.680Z,27.15
2023-02-13T17:23:22.689Z,21.50
2023-02-13T17:25:53.688Z,34.63
2023-02-13T17:28:26.329Z,24.30
2023-02-13T17:33:34.649Z,29.27
2023-02-13T17:36:02.896Z,20.20
2023-02-13T17:38:31.301Z,22.50
2023-02-13T17:41:01.902Z,31.17
2023-02-13T17:43:31.578Z,35.50
2023-02-13T17:46:05.309Z,27.27
2023-02-13T17:48:34.104Z,23.27
2023-02-13T17:51:02.349Z,24.27
2023-02-13T17:53:32.471Z,20.00
2023-02-13T17:56:01.263Z,22.35
2023-02-13T17:58:35.517Z,30.48
2023-02-13T18:01:03.981Z,33.15
2023-02-13T18:03:43.979Z,34.67
2023-02-13T18:06:15.957Z,32.75
2023-02-13T18:08:45.631Z,38.50
2023-02-13T18:11:16.421Z,32.90
2023-02-13T18:13:48.342Z,30.13
2023-02-13T18:16:17.287Z,32.13
2023-02-13T18:18:45.593Z,30.60
2023-02-13T18:21:18.478Z,28.73
2023-02-13T18:23:53.214Z,32.63
2023-02-13T18:26:30.809Z,29.95
2023-02-13T18:29:07.798Z,30.25
2023-02-13T18:31:36.140Z,28.45
2023-02-13T18:34:04.334Z,34.03
2023-02-13T18:36:32.536Z,24.17
2023-02-13T18:39:00.692Z,28.45
2023-02-13T18:41:28.843Z,25.77
2023-02-13T18:43:58.388Z,24.77
2023-02-13T18:46:28.044Z,26.63
2023-02-13T18:48:56.334Z,25.13
2023-02-13T18:51:24.624Z,28.33
2023-02-13T18:53:53.648Z,27.63
2023-02-13T18:56:22.983Z,23.40
2023-02-13T18:58:51.427Z,22.98
2023-02-13T19:01:22.512Z,24.20
2023-02-13T19:03:54.442Z,25.45
2023-02-13T19:06:25.389Z,24.90
2023-02-13T19:08:53.602Z,26.58
2023-02-13T19:11:24.796Z,25.58
2023-02-13T19:13:56.020Z,23.88
2023-02-13T19:16:25.361Z,26.05
2023-02-13T19:18:57.367Z,29.08
2023-02-13T19:21:27.978Z,30.00
2023-02-13T19:23:58.260Z,30.85
2023-02-13T19:26:28.397Z,25.90
2023-02-13T19:28:58.082Z,25.73
2023-02-13T19:31:29.879Z,28.90
2023-02-13T19:34:00.613Z,28.17
2023-02-13T19:36:30.913Z,27.25
2023-02-13T19:39:02.907Z,26.20
2023-02-13T19:41:32.749Z,29.67
2023-02-13T19:44:01.717Z,28.65
2023-02-13T19:46:32.451Z,24.92
2023-02-13T19:49:03.039Z,24.55
2023-02-13T19:51:33.373Z,26.45
2023-02-13T19:54:04.437Z,26.10
2023-02-13T19:56:34.280Z,23.17
2023-02-13T19:59:02.479Z,27.27
2023-02-13T20:01:33.142Z,25.95
2023-02-13T20:04:02.706Z,27.05
2023-02-13T20:06:34.961Z,25.83
2023-02-13T20:09:11.912Z,23.75
2023-02-13T20:11:41.863Z,25.83
2023-02-13T20:14:14.778Z,28.20
2023-02-13T20:16:45.505Z,24.67
2023-02-13T20:19:16.620Z,27.65
2023-02-13T20:21:45.835Z,26.63
2023-02-13T20:24:14.346Z,24.75
2023-02-13T20:26:42.915Z,24.83
2023-02-13T20:29:11.303Z,28.88
2023-02-13T20:31:41.349Z,35.58
2023-02-13T20:34:10.495Z,41.33
2023-02-13T20:36:40.022Z,44.28
2023-02-13T20:39:08.961Z,34.22
2023-02-13T20:41:38.717Z,33.65
2023-02-13T20:44:13.202Z,32.03
2023-02-13T20:46:41.926Z,34.22
2023-02-13T20:49:12.269Z,35.90
2023-02-13T20:51:41.761Z,34.05
2023-02-13T20:54:11.092Z,31.90
2023-02-13T20:56:39.473Z,35.47
2023-02-13T20:59:07.800Z,34.53
2023-02-13T21:01:41.220Z,34.88
2023-02-13T21:04:13.574Z,36.30
2023-02-13T21:06:43.429Z,36.25
2023-02-13T21:09:12.164Z,33.50
2023-02-13T21:11:44.689Z,37.05
2023-02-13T21:14:14.123Z,36.67
2023-02-13T21:16:44.347Z,40.97
2023-02-13T21:19:17.132Z,38.17
2023-02-13T21:24:19.023Z,43.17
2023-02-13T21:26:48.879Z,50.23
2023-02-13T21:29:18.455Z,49.05
2023-02-13T21:31:48.433Z,43.85
2023-02-13T21:34:20.956Z,38.92
2023-02-13T21:36:50.951Z,35.40
2023-02-13T21:39:21.842Z,36.72
2023-02-13T21:41:50.031Z,33.47
2023-02-13T21:44:18.467Z,36.22
2023-02-13T21:46:47.633Z,33.33
2023-02-13T21:49:23.021Z,34.38
2023-02-13T21:51:52.875Z,41.13
2023-02-13T21:54:20.995Z,42.08
2023-02-13T21:56:49.183Z,41.75
2023-02-13T21:59:20.720Z,40.45
2023-02-13T22:01:51.124Z,36.30
2023-02-13T22:04:19.758Z,34.42
2023-02-13T22:06:51.321Z,36.45
2023-02-13T22:09:22.952Z,35.75
2023-02-13T22:11:53.603Z,39.20
2023-02-13T22:14:22.350Z,39.05
2023-02-13T22:16:52.169Z,36.38
2023-02-13T22:19:21.204Z,38.15
2023-02-13T22:21:49.491Z,34.67
2023-02-13T22:24:17.874Z,38.15
2023-02-13T22:26:47.429Z,37.20
2023-02-13T22:29:18.375Z,37.28
2023-02-13T22:31:47.734Z,35.85
2023-02-13T22:34:16.600Z,32.22
2023-02-13T22:36:44.887Z,31.88
2023-02-13T22:39:13.824Z,36.17
2023-02-13T22:41:45.467Z,33.88
2023-02-13T22:44:15.083Z,41.72
2023-02-13T22:46:45.157Z,41.78
2023-02-13T22:49:13.390Z,44.78
2023-02-13T22:51:41.487Z,38.95
2023-02-13T22:54:11.392Z,36.80
2023-02-13T22:56:39.572Z,32.42
2023-02-13T22:59:07.821Z,36.20
2023-02-13T23:01:37.716Z,32.13
2023-02-13T23:04:06.133Z,33.40
2023-02-13T23:06:34.270Z,38.50
2023-02-13T23:09:02.707Z,34.08
2023-02-13T23:11:48.414Z,36.83
2023-02-13T23:14:16.919Z,36.35
2023-02-13T23:17:04.049Z,39.33
2023-02-13T23:19:32.632Z,34.55
2023-02-13T23:22:01.709Z,35.45
2023-02-13T23:24:31.266Z,41.97
2023-02-13T23:27:00.026Z,34.38
2023-02-13T23:29:28.857Z,29.58
2023-02-13T23:31:58.626Z,32.72
2023-02-13T23:34:27.060Z,31.50
2023-02-13T23:36:55.384Z,30.35
2023-02-13T23:39:24.185Z,36.97
2023-02-13T23:41:52.425Z,25.88
2023-02-13T23:44:21.085Z,31.55
2023-02-13T23:46:49.237Z,32.53
2023-02-13T23:49:18.949Z,28.25
2023-02-13T23:51:47.101Z,28.70
2023-02-13T23:54:16.612Z,25.63
2023-02-13T23:56:45.633Z,27.42
2023-02-13T23:59:14.112Z,26.10
